Time;durP1;ratioP1;P1;durP2;ratioP2;P2;SDS_P1;SDS_P2;PMS_P1;PMS_P2;Temp;Humidity;BMP_temperature;BMP_pressure;BME280_temperature;BME280_humidity;BME280_pressure;Samples;Min_cycle;Max_cycle;Signal;HPM_P1;HPM_P2
2022/07/09 00:01:01;;;;;;;3.47;2.17;;;;;;;;;;4992730;28;20398;-74
2022/07/09 00:03:27;;;;;;;2.75;2.05;;;;;;;;;;4994242;28;20038;-73
2022/07/09 00:05:53;;;;;;;3.20;1.80;;;;;;;;;;4994445;28;20039;-77
2022/07/09 00:08:19;;;;;;;4.65;2.00;;;;;;;;;;4994462;28;20026;-71
2022/07/09 00:10:45;;;;;;;2.95;1.83;;;;;;;;;;4994231;28;20045;-78
2022/07/09 00:13:11;;;;;;;2.75;1.70;;;;;;;;;;4993190;28;20717;-76
2022/07/09 00:15:37;;;;;;;4.20;1.98;;;;;;;;;;4994337;28;20038;-76
2022/07/09 00:18:03;;;;;;;3.72;2.05;;;;;;;;;;4994502;28;20117;-79
2022/07/09 00:20:29;;;;;;;3.00;1.77;;;;;;;;;;4994654;28;20034;-77
2022/07/09 00:22:55;;;;;;;2.90;1.60;;;;;;;;;;4994323;28;20084;-71
2022/07/09 00:25:20;;;;;;;4.05;1.90;;;;;;;;;;4994431;28;20043;-70
2022/07/09 00:27:46;;;;;;;2.53;1.50;;;;;;;;;;4994439;28;20429;-72
2022/07/09 00:30:12;;;;;;;1.90;1.25;;;;;;;;;;4994168;28;20046;-73
2022/07/09 00:32:39;;;;;;;2.88;1.75;;;;;;;;;;4994179;28;20172;-73
2022/07/09 00:35:06;;;;;;;5.03;1.50;;;;;;;;;;4993811;28;20045;-72
2022/07/09 00:37:31;;;;;;;3.50;1.73;;;;;;;;;;4993706;28;20026;-71
2022/07/09 00:39:57;;;;;;;2.40;1.70;;;;;;;;;;4994060;28;20034;-71
2022/07/09 00:42:24;;;;;;;2.55;1.55;;;;;;;;;;4994029;28;20476;-74
2022/07/09 00:44:51;;;;;;;2.90;1.60;;;;;;;;;;4993769;28;20030;-71
2022/07/09 00:47:17;;;;;;;3.72;1.67;;;;;;;;;;4957699;28;20035;-73
2022/07/09 00:49:44;;;;;;;3.50;1.60;;;;;;;;;;4974499;28;20381;-69
2022/07/09 00:52:13;;;;;;;2.97;1.50;;;;;;;;;;4974375;28;20027;-73
2022/07/09 00:54:40;;;;;;;2.60;1.58;;;;;;;;;;4973844;28;20030;-72
2022/07/09 00:57:07;;;;;;;2.28;1.50;;;;;;;;;;4973646;28;20051;-71
2022/07/09 00:59:39;;;;;;;2.40;1.65;;;;;;;;;;4973556;28;20035;-70
2022/07/09 01:02:07;;;;;;;2.00;1.48;;;;;;;;;;4974191;28;20035;-72
2022/07/09 01:04:33;;;;;;;2.33;1.20;;;;;;;;;;4974112;28;20023;-71
2022/07/09 01:06:59;;;;;;;2.55;1.20;;;;;;;;;;4973991;28;20031;-71
2022/07/09 01:09:27;;;;;;;2.38;1.50;;;;;;;;;;4972902;28;20023;-71
2022/07/09 01:11:53;;;;;;;2.53;1.70;;;;;;;;;;4973216;28;20038;-69
2022/07/09 01:14:19;;;;;;;3.70;1.80;;;;;;;;;;4973956;28;20088;-71
2022/07/09 01:16:45;;;;;;;2.30;1.60;;;;;;;;;;4973990;28;20118;-69
2022/07/09 01:19:11;;;;;;;3.25;1.80;;;;;;;;;;4973556;28;20538;-69
2022/07/09 01:21:37;;;;;;;2.83;1.80;;;;;;;;;;4973474;28;20133;-70
2022/07/09 01:24:03;;;;;;;2.95;1.55;;;;;;;;;;4973503;28;20106;-71
2022/07/09 01:26:30;;;;;;;5.47;2.05;;;;;;;;;;4973185;28;20037;-70
2022/07/09 01:28:56;;;;;;;3.22;1.92;;;;;;;;;;4973046;28;20537;-69
2022/07/09 01:31:21;;;;;;;2.55;1.50;;;;;;;;;;4973221;28;20121;-70
2022/07/09 01:33:47;;;;;;;3.20;1.60;;;;;;;;;;4973323;28;20109;-69
2022/07/09 01:36:13;;;;;;;9.88;2.00;;;;;;;;;;4968660;28;20138;-70
2022/07/09 01:38:39;;;;;;;4.60;2.10;;;;;;;;;;4963748;28;20027;-69
2022/07/09 01:41:05;;;;;;;3.50;1.90;;;;;;;;;;4972623;28;20449;-70
2022/07/09 01:43:33;;;;;;;6.43;1.90;;;;;;;;;;4972965;28;20027;-69
2022/07/09 01:46:00;;;;;;;4.30;1.83;;;;;;;;;;4973418;28;20038;-69
2022/07/09 01:48:27;;;;;;;5.57;1.95;;;;;;;;;;4965266;28;20031;-72
2022/07/09 01:50:53;;;;;;;4.50;2.00;;;;;;;;;;4955954;28;20101;-72
2022/07/09 01:53:19;;;;;;;4.68;1.90;;;;;;;;;;4973950;28;20031;-70
2022/07/09 01:55:45;;;;;;;4.00;1.90;;;;;;;;;;4965215;28;20042;-71
2022/07/09 01:58:11;;;;;;;3.15;1.90;;;;;;;;;;4954724;28;20039;-68
2022/07/09 02:00:37;;;;;;;4.50;1.80;;;;;;;;;;4952469;28;20549;-71
2022/07/09 02:03:02;;;;;;;7.55;2.58;;;;;;;;;;4953618;28;20031;-70
2022/07/09 02:05:29;;;;;;;4.72;1.80;;;;;;;;;;4953941;28;20499;-69
2022/07/09 02:07:55;;;;;;;5.88;2.20;;;;;;;;;;4957911;28;20533;-71
2022/07/09 02:10:21;;;;;;;2.30;1.85;;;;;;;;;;4973105;28;20118;-72
2022/07/09 02:12:46;;;;;;;5.30;1.73;;;;;;;;;;4973171;28;20531;-75
2022/07/09 02:15:13;;;;;;;3.08;1.88;;;;;;;;;;4973135;28;20387;-70
2022/07/09 02:17:39;;;;;;;4.72;1.63;;;;;;;;;;4972970;28;20493;-73
2022/07/09 02:20:05;;;;;;;5.95;2.10;;;;;;;;;;4972917;28;20037;-70
2022/07/09 02:22:31;;;;;;;3.00;2.20;;;;;;;;;;4972627;28;20031;-70
2022/07/09 02:24:57;;;;;;;5.05;2.67;;;;;;;;;;4976103;28;20044;-72
2022/07/09 02:27:23;;;;;;;5.32;2.50;;;;;;;;;;4976864;28;20033;-69
2022/07/09 02:29:49;;;;;;;8.48;2.80;;;;;;;;;;4974159;28;20031;-70
2022/07/09 02:32:14;;;;;;;8.13;2.95;;;;;;;;;;4957200;28;20540;-71
2022/07/09 02:34:40;;;;;;;4.82;2.22;;;;;;;;;;4957533;29;20098;-73
2022/07/09 02:37:07;;;;;;;3.00;1.95;;;;;;;;;;4957505;28;20058;-73
2022/07/09 02:39:33;;;;;;;4.90;1.83;;;;;;;;;;4957086;28;20055;-70
2022/07/09 02:41:59;;;;;;;5.70;1.77;;;;;;;;;;4956862;28;20031;-69
2022/07/09 02:44:25;;;;;;;10.25;2.53;;;;;;;;;;4956826;28;20382;-69
2022/07/09 02:46:51;;;;;;;3.72;2.15;;;;;;;;;;4956937;28;20109;-70
2022/07/09 02:49:17;;;;;;;4.13;2.20;;;;;;;;;;4957341;29;20091;-70
2022/07/09 02:51:43;;;;;;;6.13;2.50;;;;;;;;;;4957185;28;20085;-69
2022/07/09 02:54:09;;;;;;;3.08;2.20;;;;;;;;;;4957214;29;20050;-73
2022/07/09 02:56:35;;;;;;;4.20;2.10;;;;;;;;;;4957115;28;20035;-70
2022/07/09 02:59:02;;;;;;;4.88;2.40;;;;;;;;;;4956849;28;20382;-69
2022/07/09 03:01:28;;;;;;;4.60;2.15;;;;;;;;;;4956670;28;20023;-68
2022/07/09 03:03:54;;;;;;;5.90;2.30;;;;;;;;;;4956634;29;20042;-68
2022/07/09 03:06:20;;;;;;;4.47;2.40;;;;;;;;;;4956900;28;20061;-69
2022/07/09 03:08:46;;;;;;;3.63;2.33;;;;;;;;;;4956844;29;20043;-70
2022/07/09 03:11:12;;;;;;;3.60;2.08;;;;;;;;;;4956896;28;20041;-68
2022/07/09 03:13:38;;;;;;;4.03;2.30;;;;;;;;;;4956710;28;20470;-70
2022/07/09 03:16:04;;;;;;;5.20;2.30;;;;;;;;;;4956828;28;20034;-69
2022/07/09 03:18:30;;;;;;;3.63;2.40;;;;;;;;;;4956867;28;20031;-69
2022/07/09 03:20:56;;;;;;;4.28;2.38;;;;;;;;;;4956009;28;20039;-69
2022/07/09 03:23:22;;;;;;;7.20;2.20;;;;;;;;;;4956328;28;20046;-69
2022/07/09 03:25:48;;;;;;;6.95;2.42;;;;;;;;;;4956483;28;20028;-70
2022/07/09 03:28:14;;;;;;;8.73;3.05;;;;;;;;;;4956011;28;20122;-72
2022/07/09 03:30:40;;;;;;;6.22;2.30;;;;;;;;;;4956483;28;20038;-73
2022/07/09 03:33:06;;;;;;;3.28;2.00;;;;;;;;;;4956628;28;20039;-73
2022/07/09 03:35:31;;;;;;;4.43;2.55;;;;;;;;;;4955287;28;20038;-73
2022/07/09 03:37:57;;;;;;;2.80;2.08;;;;;;;;;;4955880;28;20035;-74
2022/07/09 03:40:23;;;;;;;4.50;2.28;;;;;;;;;;4955215;29;20546;-70
2022/07/09 03:42:49;;;;;;;5.68;2.70;;;;;;;;;;4955115;29;20403;-76
2022/07/09 03:45:15;;;;;;;5.18;2.05;;;;;;;;;;4956355;28;20031;-71
2022/07/09 03:47:41;;;;;;;3.30;1.95;;;;;;;;;;4957926;28;20046;-70
2022/07/09 03:50:07;;;;;;;5.45;2.70;;;;;;;;;;4957180;28;20497;-69
2022/07/09 03:52:33;;;;;;;12.35;3.22;;;;;;;;;;4956220;28;20047;-73
2022/07/09 03:54:59;;;;;;;7.93;2.50;;;;;;;;;;4956151;28;20027;-71
2022/07/09 03:57:25;;;;;;;6.07;2.60;;;;;;;;;;4955707;28;20043;-71
2022/07/09 03:59:50;;;;;;;6.20;2.40;;;;;;;;;;4955999;28;20083;-70
2022/07/09 04:02:16;;;;;;;7.38;2.63;;;;;;;;;;4954720;29;20035;-70
2022/07/09 04:04:43;;;;;;;3.50;2.20;;;;;;;;;;4955718;28;20498;-73
2022/07/09 04:07:10;;;;;;;3.83;2.30;;;;;;;;;;4955921;28;20526;-71
2022/07/09 04:09:36;;;;;;;7.53;2.30;;;;;;;;;;4956132;28;20026;-71
2022/07/09 04:12:03;;;;;;;6.72;2.60;;;;;;;;;;4955757;29;20067;-69
2022/07/09 04:14:28;;;;;;;6.53;2.17;;;;;;;;;;4967793;28;20034;-70
2022/07/09 04:16:54;;;;;;;4.53;2.20;;;;;;;;;;4974495;28;20109;-71
2022/07/09 04:19:20;;;;;;;3.97;2.28;;;;;;;;;;4974690;28;20401;-69
2022/07/09 04:21:46;;;;;;;6.80;2.60;;;;;;;;;;4974944;28;20035;-71
2022/07/09 04:24:12;;;;;;;3.22;2.20;;;;;;;;;;4974850;28;20025;-69
2022/07/09 04:26:37;;;;;;;2.55;2.00;;;;;;;;;;4974757;28;20039;-70
2022/07/09 04:29:03;;;;;;;6.35;2.30;;;;;;;;;;4974756;28;20046;-69
2022/07/09 04:31:29;;;;;;;5.57;2.30;;;;;;;;;;4974462;28;20039;-69
2022/07/09 04:33:55;;;;;;;4.82;2.65;;;;;;;;;;4974186;28;20120;-69
2022/07/09 04:36:21;;;;;;;15.70;3.22;;;;;;;;;;4974404;28;20031;-70
2022/07/09 04:38:47;;;;;;;8.07;2.35;;;;;;;;;;4974380;28;20036;-70
2022/07/09 04:41:12;;;;;;;12.23;3.00;;;;;;;;;;4974652;28;20034;-69
2022/07/09 04:43:38;;;;;;;3.22;2.10;;;;;;;;;;4974521;28;20521;-69
2022/07/09 04:46:04;;;;;;;2.97;2.20;;;;;;;;;;4974359;28;20062;-69
2022/07/09 04:48:30;;;;;;;4.63;2.28;;;;;;;;;;4973533;28;20026;-69
2022/07/09 04:50:56;;;;;;;4.03;2.53;;;;;;;;;;4973784;28;20038;-71
2022/07/09 04:53:21;;;;;;;4.78;2.70;;;;;;;;;;4972677;28;20430;-69
2022/07/09 04:55:48;;;;;;;11.57;2.85;;;;;;;;;;4974377;28;20030;-69
2022/07/09 04:58:14;;;;;;;3.88;2.58;;;;;;;;;;4974338;28;20552;-69
2022/07/09 05:00:40;;;;;;;5.75;2.47;;;;;;;;;;4974191;28;20050;-69
2022/07/09 05:03:05;;;;;;;4.38;2.40;;;;;;;;;;4973366;28;20030;-69
2022/07/09 05:05:31;;;;;;;3.47;2.38;;;;;;;;;;4974096;28;20039;-70
2022/07/09 05:07:57;;;;;;;5.13;2.33;;;;;;;;;;4973897;28;20035;-72
2022/07/09 05:10:23;;;;;;;8.35;2.30;;;;;;;;;;4961611;28;20541;-72
2022/07/09 05:12:49;;;;;;;3.75;2.63;;;;;;;;;;4954359;29;20054;-75
2022/07/09 05:15:15;;;;;;;3.65;2.40;;;;;;;;;;4954816;29;20047;-75
2022/07/09 05:17:41;;;;;;;5.03;2.47;;;;;;;;;;4955583;29;20042;-74
2022/07/09 05:20:08;;;;;;;3.90;2.80;;;;;;;;;;4972347;28;20478;-70
2022/07/09 05:22:36;;;;;;;6.82;2.78;;;;;;;;;;4974517;28;20102;-72
2022/07/09 05:25:03;;;;;;;4.32;2.30;;;;;;;;;;4974715;28;20031;-72
2022/07/09 05:27:29;;;;;;;3.17;2.47;;;;;;;;;;4974707;28;20027;-71
2022/07/09 05:29:55;;;;;;;5.15;2.40;;;;;;;;;;4974334;28;20038;-72
2022/07/09 05:32:21;;;;;;;3.60;2.47;;;;;;;;;;4974288;28;20113;-75
2022/07/09 05:34:47;;;;;;;4.47;2.90;;;;;;;;;;4974501;28;20038;-70
2022/07/09 05:37:13;;;;;;;3.53;2.70;;;;;;;;;;4973411;28;20387;-72
2022/07/09 05:39:39;;;;;;;4.53;2.38;;;;;;;;;;4978295;28;20038;-76
2022/07/09 05:42:05;;;;;;;3.55;2.63;;;;;;;;;;4978820;28;20022;-72
2022/07/09 05:44:32;;;;;;;6.22;2.80;;;;;;;;;;4974175;28;20047;-74
2022/07/09 05:46:58;;;;;;;4.13;3.08;;;;;;;;;;4973752;28;20031;-69
2022/07/09 05:49:24;;;;;;;6.65;3.10;;;;;;;;;;4973945;28;20108;-68
2022/07/09 05:51:49;;;;;;;7.22;3.30;;;;;;;;;;4973628;28;20487;-69
2022/07/09 05:54:15;;;;;;;4.35;3.40;;;;;;;;;;4972849;28;20177;-71
2022/07/09 05:56:41;;;;;;;6.97;3.35;;;;;;;;;;4972987;28;20073;-69
2022/07/09 05:59:07;;;;;;;7.55;4.72;;;;;;;;;;4973627;28;20117;-72
2022/07/09 06:01:38;;;;;;;4.43;3.50;;;;;;;;;;4973657;28;20031;-71
2022/07/09 06:04:07;;;;;;;5.82;3.78;;;;;;;;;;4973921;28;20035;-70
2022/07/09 06:06:33;;;;;;;6.07;3.45;;;;;;;;;;4973744;28;20081;-70
2022/07/09 06:08:59;;;;;;;8.00;3.40;;;;;;;;;;4973723;28;20034;-72
2022/07/09 06:11:25;;;;;;;7.90;3.30;;;;;;;;;;4973805;28;20027;-77
2022/07/09 06:13:51;;;;;;;5.10;3.50;;;;;;;;;;4973939;28;20031;-74
2022/07/09 06:16:17;;;;;;;4.10;3.28;;;;;;;;;;4973143;28;20027;-75
2022/07/09 06:18:43;;;;;;;4.45;3.70;;;;;;;;;;4973734;28;20415;-75
2022/07/09 06:21:08;;;;;;;5.75;3.22;;;;;;;;;;4970625;28;20023;-71
2022/07/09 06:23:34;;;;;;;4.93;3.70;;;;;;;;;;4962835;28;20035;-71
2022/07/09 06:26:00;;;;;;;5.78;3.70;;;;;;;;;;4954670;29;20379;-67
2022/07/09 06:28:26;;;;;;;8.18;4.53;;;;;;;;;;4971870;28;20469;-69
2022/07/09 06:30:52;;;;;;;5.18;3.78;;;;;;;;;;4992572;28;20022;-74
2022/07/09 06:33:17;;;;;;;11.15;4.47;;;;;;;;;;4971034;28;20089;-77
2022/07/09 06:35:43;;;;;;;5.25;4.55;;;;;;;;;;4972915;28;20070;-75
2022/07/09 06:38:09;;;;;;;8.40;4.35;;;;;;;;;;4973420;28;20442;-78
2022/07/09 06:40:35;;;;;;;5.68;3.85;;;;;;;;;;4970151;28;20034;-75
2022/07/09 06:43:01;;;;;;;5.07;4.20;;;;;;;;;;4963394;28;20507;-76
2022/07/09 06:45:42;;;;;;;5.72;3.67;;;;;;;;;;4962877;28;20030;-76
2022/07/09 06:48:08;;;;;;;5.13;3.67;;;;;;;;;;4972940;28;20038;-75
2022/07/09 06:50:33;;;;;;;4.28;3.60;;;;;;;;;;4966709;28;20114;-76
2022/07/09 06:52:59;;;;;;;3.95;3.50;;;;;;;;;;4957619;28;20501;-77
2022/07/09 06:55:25;;;;;;;6.38;3.92;;;;;;;;;;4954075;28;20031;-77
2022/07/09 06:57:51;;;;;;;7.82;3.70;;;;;;;;;;4953626;28;20048;-77
2022/07/09 07:00:18;;;;;;;3.58;2.90;;;;;;;;;;4954080;29;20110;-75
2022/07/09 07:02:43;;;;;;;3.72;2.63;;;;;;;;;;4953337;28;20167;-76
2022/07/09 07:05:09;;;;;;;4.05;3.00;;;;;;;;;;4959652;28;20470;-76
2022/07/09 07:07:35;;;;;;;7.13;3.78;;;;;;;;;;4957094;28;20062;-75
2022/07/09 07:10:01;;;;;;;4.35;3.30;;;;;;;;;;4953843;28;20027;-74
2022/07/09 07:12:27;;;;;;;5.13;4.03;;;;;;;;;;4957464;29;20043;-76
2022/07/09 07:14:53;;;;;;;7.03;4.53;;;;;;;;;;4958890;28;20031;-76
2022/07/09 07:17:19;;;;;;;6.85;4.55;;;;;;;;;;4971019;28;20027;-77
2022/07/09 07:19:44;;;;;;;7.15;4.22;;;;;;;;;;4958915;28;20458;-77
2022/07/09 07:22:10;;;;;;;7.95;5.15;;;;;;;;;;4959900;28;20039;-79
2022/07/09 07:24:36;;;;;;;7.28;4.55;;;;;;;;;;4964956;28;20386;-79
2022/07/09 07:27:02;;;;;;;9.23;4.22;;;;;;;;;;4956359;28;20079;-77
2022/07/09 07:29:28;;;;;;;5.45;3.95;;;;;;;;;;4956751;28;20070;-72
2022/07/09 07:31:54;;;;;;;6.05;4.22;;;;;;;;;;4956833;28;20031;-77
2022/07/09 07:34:22;;;;;;;7.43;4.50;;;;;;;;;;4981789;28;20035;-76
2022/07/09 07:36:50;;;;;;;5.07;4.57;;;;;;;;;;4975233;28;20045;-76
2022/07/09 07:39:16;;;;;;;4.25;3.67;;;;;;;;;;4963644;28;20485;-76
2022/07/09 07:41:48;;;;;;;5.28;4.30;;;;;;;;;;4970824;28;20042;-76
2022/07/09 07:44:14;;;;;;;5.53;4.07;;;;;;;;;;4975005;28;20339;-74
2022/07/09 07:46:40;;;;;;;5.78;3.42;;;;;;;;;;4969123;28;20023;-77
2022/07/09 07:49:05;;;;;;;5.55;4.05;;;;;;;;;;4973600;28;20041;-77
2022/07/09 07:51:31;;;;;;;7.53;3.80;;;;;;;;;;4975095;28;20023;-77
2022/07/09 07:53:57;;;;;;;4.88;3.33;;;;;;;;;;4974284;28;20371;-76
2022/07/09 07:56:23;;;;;;;5.03;3.70;;;;;;;;;;4974236;28;20047;-74
2022/07/09 07:58:49;;;;;;;4.60;3.65;;;;;;;;;;4973543;28;20069;-77
2022/07/09 08:01:14;;;;;;;4.05;3.42;;;;;;;;;;4974600;28;20034;-76
2022/07/09 08:03:40;;;;;;;3.85;3.22;;;;;;;;;;4973929;28;20561;-77
2022/07/09 08:06:07;;;;;;;8.00;4.00;;;;;;;;;;4973256;28;20031;-76
2022/07/09 08:08:34;;;;;;;6.72;4.53;;;;;;;;;;4972983;28;20054;-75
2022/07/09 08:11:00;;;;;;;5.93;4.40;;;;;;;;;;4972714;28;20035;-76
2022/07/09 08:13:28;;;;;;;5.50;4.57;;;;;;;;;;4972635;28;20063;-75
2022/07/09 08:15:54;;;;;;;5.28;4.50;;;;;;;;;;4972628;28;20584;-76
2022/07/09 08:18:20;;;;;;;6.43;4.35;;;;;;;;;;4971689;28;20189;-78
2022/07/09 08:20:47;;;;;;;7.43;4.65;;;;;;;;;;4972439;28;20066;-73
2022/07/09 08:23:13;;;;;;;4.55;3.50;;;;;;;;;;4972151;28;20092;-76
2022/07/09 08:25:39;;;;;;;4.95;3.33;;;;;;;;;;4968264;28;20019;-77
2022/07/09 08:28:05;;;;;;;3.33;2.40;;;;;;;;;;4954935;28;20035;-76
2022/07/09 08:30:31;;;;;;;3.75;2.90;;;;;;;;;;4954491;28;20024;-78
2022/07/09 08:32:57;;;;;;;8.85;2.80;;;;;;;;;;4954320;28;20043;-76
2022/07/09 08:35:25;;;;;;;6.20;3.17;;;;;;;;;;4954676;28;20485;-76
2022/07/09 08:37:51;;;;;;;4.85;2.90;;;;;;;;;;4954586;28;20051;-76
2022/07/09 08:40:16;;;;;;;4.38;3.00;;;;;;;;;;4936862;29;20023;-76
2022/07/09 08:42:43;;;;;;;7.40;4.30;;;;;;;;;;4955792;28;20491;-78
2022/07/09 08:45:13;;;;;;;14.82;5.25;;;;;;;;;;4973833;28;20022;-74
2022/07/09 08:47:40;;;;;;;9.02;4.45;;;;;;;;;;4972833;28;20070;-74
2022/07/09 08:50:06;;;;;;;6.07;3.38;;;;;;;;;;4973509;28;20054;-75
2022/07/09 08:52:33;;;;;;;6.70;3.05;;;;;;;;;;4973576;28;20050;-75
2022/07/09 08:54:59;;;;;;;5.72;2.67;;;;;;;;;;4973298;28;20030;-75
2022/07/09 08:57:25;;;;;;;5.05;2.85;;;;;;;;;;4972734;28;20043;-75
2022/07/09 08:59:51;;;;;;;3.20;2.50;;;;;;;;;;4973234;28;20031;-76
2022/07/09 09:02:20;;;;;;;2.83;2.35;;;;;;;;;;4973377;28;20118;-78
2022/07/09 09:04:46;;;;;;;4.88;2.60;;;;;;;;;;4970651;28;20022;-75
2022/07/09 09:07:17;;;;;;;4.00;2.53;;;;;;;;;;4973053;28;20041;-74
2022/07/09 09:09:43;;;;;;;3.50;2.38;;;;;;;;;;4972223;28;20031;-74
2022/07/09 09:12:11;;;;;;;6.53;2.50;;;;;;;;;;4973260;28;20057;-76
2022/07/09 09:14:37;;;;;;;4.78;2.83;;;;;;;;;;4973333;28;20037;-75
2022/07/09 09:17:11;;;;;;;4.80;2.50;;;;;;;;;;4973281;28;20463;-74
2022/07/09 09:19:38;;;;;;;9.38;2.90;;;;;;;;;;4970638;28;20038;-73
2022/07/09 09:22:06;;;;;;;6.32;3.03;;;;;;;;;;4970561;28;20111;-77
2022/07/09 09:24:32;;;;;;;4.63;3.00;;;;;;;;;;4978690;28;20036;-74
2022/07/09 09:26:59;;;;;;;4.78;2.97;;;;;;;;;;4963748;28;20026;-75
2022/07/09 09:29:26;;;;;;;5.63;2.97;;;;;;;;;;4972391;28;20033;-74
2022/07/09 09:31:53;;;;;;;5.38;2.97;;;;;;;;;;4972276;28;20030;-73
2022/07/09 09:34:19;;;;;;;4.00;2.85;;;;;;;;;;4970671;28;20470;-74
2022/07/09 09:36:50;;;;;;;3.47;2.40;;;;;;;;;;4972090;28;20390;-75
2022/07/09 09:39:22;;;;;;;3.00;2.30;;;;;;;;;;4971482;28;20041;-73
2022/07/09 09:41:50;;;;;;;4.47;2.80;;;;;;;;;;4971567;28;20105;-74
2022/07/09 09:44:19;;;;;;;5.25;2.30;;;;;;;;;;4972185;28;20026;-76
2022/07/09 09:46:46;;;;;;;7.82;3.10;;;;;;;;;;4971568;28;20042;-74
2022/07/09 09:49:15;;;;;;;4.95;2.40;;;;;;;;;;4971667;28;20026;-77
2022/07/09 09:52:00;;;;;;;3.10;2.50;;;;;;;;;;4963238;28;20035;-76
2022/07/09 09:54:26;;;;;;;3.58;2.38;;;;;;;;;;4970586;28;20034;-75
2022/07/09 09:56:53;;;;;;;3.25;2.20;;;;;;;;;;4971920;28;20573;-74
2022/07/09 09:59:20;;;;;;;2.50;2.00;;;;;;;;;;4970696;28;20097;-74
2022/07/09 10:01:46;;;;;;;2.80;2.08;;;;;;;;;;4971493;28;20165;-74
2022/07/09 10:04:14;;;;;;;2.95;1.95;;;;;;;;;;4972766;28;20042;-75
2022/07/09 10:06:41;;;;;;;3.80;2.45;;;;;;;;;;4973022;28;20038;-80
2022/07/09 10:09:11;;;;;;;2.70;2.22;;;;;;;;;;4972409;28;20039;-77
2022/07/09 10:11:41;;;;;;;3.00;2.00;;;;;;;;;;4972808;28;20039;-79
2022/07/09 10:14:07;;;;;;;6.22;2.50;;;;;;;;;;4972686;28;20031;-77
2022/07/09 10:16:40;;;;;;;4.35;2.40;;;;;;;;;;4972511;28;20019;-77
2022/07/09 10:19:09;;;;;;;4.68;2.58;;;;;;;;;;4973113;28;20041;-74
2022/07/09 10:21:40;;;;;;;4.68;2.90;;;;;;;;;;4972792;28;20034;-76
2022/07/09 10:24:08;;;;;;;3.50;2.00;;;;;;;;;;4972008;28;20034;-74
2022/07/09 10:26:38;;;;;;;4.00;2.63;;;;;;;;;;4972682;28;20054;-75
2022/07/09 10:29:27;;;;;;;3.60;2.20;;;;;;;;;;4973198;28;20442;-75
2022/07/09 10:31:54;;;;;;;2.55;1.80;;;;;;;;;;4972317;28;20410;-73
2022/07/09 10:35:01;;;;;;;2.83;1.90;;;;;;;;;;4972565;28;20058;-75
2022/07/09 10:37:42;;;;;;;2.47;1.65;;;;;;;;;;4913013;29;20042;-74
2022/07/09 10:40:12;;;;;;;3.20;2.17;;;;;;;;;;4967007;28;20042;-75
2022/07/09 10:42:39;;;;;;;2.13;1.48;;;;;;;;;;4972812;28;20786;-75
2022/07/09 10:45:21;;;;;;;4.30;2.00;;;;;;;;;;4972809;28;20461;-74
2022/07/09 10:47:54;;;;;;;5.85;1.65;;;;;;;;;;4977088;28;20111;-74
2022/07/09 10:50:21;;;;;;;5.03;1.65;;;;;;;;;;4976885;28;20034;-73
2022/07/09 10:52:47;;;;;;;5.57;1.98;;;;;;;;;;4976262;28;20462;-74
2022/07/09 10:55:19;;;;;;;5.97;2.10;;;;;;;;;;4976701;28;20035;-76
2022/07/09 10:57:45;;;;;;;5.07;2.00;;;;;;;;;;4976943;28;20039;-75
2022/07/09 11:00:17;;;;;;;2.00;1.73;;;;;;;;;;4976226;28;20078;-74
2022/07/09 11:02:55;;;;;;;3.88;1.60;;;;;;;;;;4975319;28;20031;-75
2022/07/09 11:05:22;;;;;;;3.83;2.00;;;;;;;;;;4976712;28;20039;-75
2022/07/09 11:07:59;;;;;;;2.83;1.90;;;;;;;;;;4976122;28;20066;-71
2022/07/09 11:10:27;;;;;;;3.67;1.98;;;;;;;;;;4976984;28;20363;-72
2022/07/09 11:12:54;;;;;;;3.97;2.42;;;;;;;;;;4977663;28;20031;-72
2022/07/09 11:15:21;;;;;;;4.55;2.80;;;;;;;;;;4975894;28;20035;-74
2022/07/09 11:17:59;;;;;;;3.17;2.15;;;;;;;;;;4975315;28;20451;-71
2022/07/09 11:20:27;;;;;;;3.45;2.08;;;;;;;;;;4976007;28;20068;-74
2022/07/09 11:22:56;;;;;;;2.65;2.03;;;;;;;;;;4975201;28;20374;-74
2022/07/09 11:25:24;;;;;;;4.63;2.30;;;;;;;;;;4975992;28;20038;-72
2022/07/09 11:27:50;;;;;;;3.03;2.40;;;;;;;;;;4976262;28;20098;-73
2022/07/09 11:30:17;;;;;;;6.00;2.25;;;;;;;;;;4975619;28;20122;-75
2022/07/09 11:32:43;;;;;;;2.83;2.25;;;;;;;;;;4975960;28;20030;-75
2022/07/09 11:35:10;;;;;;;4.35;2.42;;;;;;;;;;4975909;28;20031;-76
2022/07/09 11:37:37;;;;;;;7.60;2.60;;;;;;;;;;4975363;28;20488;-73
2022/07/09 11:40:04;;;;;;;4.75;2.63;;;;;;;;;;4975607;28;20039;-74
2022/07/09 11:42:30;;;;;;;3.00;2.20;;;;;;;;;;4975824;28;20023;-71
2022/07/09 11:45:02;;;;;;;2.42;2.10;;;;;;;;;;4975079;28;20038;-74
2022/07/09 11:47:35;;;;;;;3.28;2.72;;;;;;;;;;4975677;28;20046;-77
2022/07/09 11:50:15;;;;;;;3.47;2.67;;;;;;;;;;4975910;28;20512;-77
2022/07/09 11:52:47;;;;;;;4.10;2.55;;;;;;;;;;4974833;28;20409;-76
2022/07/09 11:55:19;;;;;;;3.28;2.50;;;;;;;;;;4975510;28;20030;-78
2022/07/09 11:57:56;;;;;;;3.42;2.35;;;;;;;;;;4974783;28;20072;-79
2022/07/09 12:00:33;;;;;;;5.40;2.50;;;;;;;;;;4975113;28;20039;-71
2022/07/09 12:03:00;;;;;;;3.30;2.40;;;;;;;;;;4974539;28;20374;-73
2022/07/09 12:05:32;;;;;;;3.53;2.40;;;;;;;;;;4975516;28;20027;-72
2022/07/09 12:08:00;;;;;;;3.75;2.55;;;;;;;;;;4974922;28;20034;-72
2022/07/09 12:10:37;;;;;;;5.70;2.55;;;;;;;;;;4975254;28;20030;-73
2022/07/09 12:13:04;;;;;;;5.53;2.53;;;;;;;;;;4975014;28;20461;-72
2022/07/09 12:15:30;;;;;;;2.92;2.47;;;;;;;;;;4974680;28;20023;-75
2022/07/09 12:18:00;;;;;;;2.83;2.50;;;;;;;;;;4975235;28;20103;-74
2022/07/09 12:20:31;;;;;;;3.50;2.60;;;;;;;;;;4975097;28;20038;-74
2022/07/09 12:22:58;;;;;;;4.38;2.58;;;;;;;;;;4974577;28;20540;-75
2022/07/09 12:25:24;;;;;;;3.30;2.30;;;;;;;;;;4975264;28;20066;-75
2022/07/09 12:27:50;;;;;;;3.80;2.70;;;;;;;;;;4975266;28;20465;-75
2022/07/09 12:30:16;;;;;;;4.43;2.45;;;;;;;;;;4974539;28;20102;-76
2022/07/09 12:32:43;;;;;;;4.20;2.60;;;;;;;;;;4974808;28;20034;-75
2022/07/09 12:35:09;;;;;;;3.80;2.47;;;;;;;;;;4978102;28;20027;-75
2022/07/09 12:37:39;;;;;;;4.63;2.30;;;;;;;;;;4974081;28;20039;-72
2022/07/09 12:40:07;;;;;;;2.80;2.22;;;;;;;;;;4974464;28;20069;-75
2022/07/09 12:42:33;;;;;;;4.10;2.40;;;;;;;;;;4974445;28;20027;-72
2022/07/09 12:44:59;;;;;;;2.72;2.10;;;;;;;;;;4966790;28;20111;-75
2022/07/09 12:47:25;;;;;;;3.45;2.22;;;;;;;;;;4954820;28;20457;-74
2022/07/09 12:49:51;;;;;;;2.72;2.38;;;;;;;;;;4958810;28;20497;-74
2022/07/09 12:52:17;;;;;;;2.55;2.17;;;;;;;;;;4971977;28;20133;-73
2022/07/09 12:54:43;;;;;;;4.10;2.30;;;;;;;;;;4974262;28;20441;-74
2022/07/09 12:57:10;;;;;;;2.60;2.20;;;;;;;;;;4959881;28;20177;-75
2022/07/09 12:59:37;;;;;;;4.60;2.40;;;;;;;;;;4955754;28;20055;-75
2022/07/09 13:02:04;;;;;;;4.68;2.13;;;;;;;;;;4972643;28;20049;-74
2022/07/09 13:04:30;;;;;;;4.35;2.67;;;;;;;;;;4973447;28;20068;-75
2022/07/09 13:06:56;;;;;;;3.50;2.55;;;;;;;;;;4973006;28;20023;-74
2022/07/09 13:09:22;;;;;;;2.47;1.83;;;;;;;;;;4973031;28;20038;-75
2022/07/09 13:11:49;;;;;;;4.38;2.10;;;;;;;;;;4976886;28;20050;-74
2022/07/09 13:14:16;;;;;;;2.95;2.00;;;;;;;;;;4973492;28;20046;-75
2022/07/09 13:16:41;;;;;;;2.60;1.80;;;;;;;;;;4973486;28;20054;-77
2022/07/09 13:19:07;;;;;;;2.17;1.90;;;;;;;;;;4973226;28;20073;-75
2022/07/09 13:21:33;;;;;;;3.70;2.20;;;;;;;;;;4972865;28;20027;-76
2022/07/09 13:23:59;;;;;;;3.40;1.98;;;;;;;;;;4973470;28;20035;-75
2022/07/09 13:26:25;;;;;;;3.00;2.00;;;;;;;;;;4962577;28;20426;-76
2022/07/09 13:28:51;;;;;;;3.28;2.05;;;;;;;;;;4968519;28;20058;-78
2022/07/09 13:31:19;;;;;;;3.08;1.92;;;;;;;;;;4953851;28;20462;-75
2022/07/09 13:33:44;;;;;;;2.47;2.28;;;;;;;;;;4967983;28;20035;-74
2022/07/09 13:36:10;;;;;;;3.05;2.10;;;;;;;;;;4972814;28;20030;-78
2022/07/09 13:38:36;;;;;;;3.35;1.80;;;;;;;;;;4972208;28;20030;-75
2022/07/09 13:41:02;;;;;;;4.22;2.15;;;;;;;;;;4972935;28;20470;-76
2022/07/09 13:43:28;;;;;;;2.50;1.92;;;;;;;;;;4972372;28;20382;-76
2022/07/09 13:45:58;;;;;;;3.88;2.05;;;;;;;;;;4971806;28;20397;-76
2022/07/09 13:48:26;;;;;;;1.98;1.67;;;;;;;;;;4972858;28;20355;-75
2022/07/09 13:50:53;;;;;;;2.67;1.52;;;;;;;;;;4972237;28;20099;-77
2022/07/09 13:53:20;;;;;;;2.30;1.90;;;;;;;;;;4972694;28;20097;-77
2022/07/09 13:55:46;;;;;;;2.97;1.80;;;;;;;;;;4972835;28;20023;-80
2022/07/09 13:58:13;;;;;;;2.45;1.98;;;;;;;;;;4972100;28;20042;-76
2022/07/09 14:00:39;;;;;;;3.30;2.05;;;;;;;;;;4972609;28;20089;-74
2022/07/09 14:03:05;;;;;;;3.25;1.80;;;;;;;;;;4973119;28;20047;-74
2022/07/09 14:05:31;;;;;;;2.20;1.80;;;;;;;;;;4972174;28;20029;-72
2022/07/09 14:08:00;;;;;;;2.17;1.70;;;;;;;;;;4972511;28;20035;-75
2022/07/09 14:10:26;;;;;;;2.50;1.80;;;;;;;;;;4972707;28;20027;-75
2022/07/09 14:12:52;;;;;;;4.40;2.03;;;;;;;;;;4972318;28;20516;-75
2022/07/09 14:15:18;;;;;;;2.78;1.80;;;;;;;;;;4972972;28;20489;-74
2022/07/09 14:17:44;;;;;;;2.58;1.67;;;;;;;;;;4972264;28;20034;-76
2022/07/09 14:20:11;;;;;;;2.38;1.60;;;;;;;;;;4971651;28;20026;-73
2022/07/09 14:22:37;;;;;;;4.20;2.03;;;;;;;;;;4972469;28;20038;-76
2022/07/09 14:25:03;;;;;;;3.70;2.50;;;;;;;;;;4972637;28;20082;-74
2022/07/09 14:27:29;;;;;;;3.28;2.00;;;;;;;;;;4972281;28;20445;-73
2022/07/09 14:29:54;;;;;;;2.50;2.25;;;;;;;;;;4962296;28;20027;-75
2022/07/09 14:32:21;;;;;;;2.97;2.30;;;;;;;;;;4953241;28;20047;-76
2022/07/09 14:34:46;;;;;;;3.25;2.00;;;;;;;;;;4952197;28;20031;-75
2022/07/09 14:37:12;;;;;;;3.03;2.08;;;;;;;;;;4952684;28;20516;-76
2022/07/09 14:39:38;;;;;;;2.72;2.13;;;;;;;;;;4952681;28;20023;-76
2022/07/09 14:42:04;;;;;;;2.95;1.80;;;;;;;;;;4951927;28;20039;-75